<?xml version="1.0" encoding="UTF-8" standalone="no" ?>
<gpx xmlns="http://www.topografix.com/GPX/1/1" xmlns:xsi="http://www.w3.org/2001/XMLSchema-instance" xsi:schemaLocation="http://www.topografix.com/GPX/1/1 http://www.topografix.com/GPX/1/1/gpx.xsd" version="1.1" creator="VisuGPX - https://www.visugpx.com">
  <metadata>
    <name>Marche ADEPS Sars La Bruyère 15KM  01/05/2026</name>
    <desc><![CDATA[Marche ADEPS Sars La Bruère 15 km du 01/05/2026]]></desc>
  </metadata>
  <trk>
    <name><![CDATA[Sars adepte 15km]]></name>
    <trkseg>
      <trkpt lat="50.37186" lon="3.87826">
        <ele>136.013848</ele>
        <time>2024-04-27T07:21:06.315Z</time>
      </trkpt>
      <trkpt lat="50.37185" lon="3.8783">
        <ele>136.013848</ele>
        <time>2024-04-27T07:21:06.895Z</time>
      </trkpt>
      <trkpt lat="50.37177" lon="3.87852">
        <ele>136.013848</ele>
        <time>2024-04-27T07:21:10.100Z</time>
      </trkpt>
      <trkpt lat="50.37147" lon="3.87922">
        <ele>136.013848</ele>
        <time>2024-04-27T07:21:20.404Z</time>
      </trkpt>
      <trkpt lat="50.37142" lon="3.87934">
        <ele>136.013848</ele>
        <time>2024-04-27T07:21:22.074Z</time>
      </trkpt>
      <trkpt lat="50.37139" lon="3.87945">
        <ele>136.013848</ele>
        <time>2024-04-27T07:21:23.568Z</time>
      </trkpt>
      <trkpt lat="50.37136" lon="3.87958">
        <ele>135.943186</ele>
        <time>2024-04-27T07:21:25.256Z</time>
      </trkpt>
      <trkpt lat="50.37133" lon="3.87975">
        <ele>135.849094</ele>
        <time>2024-04-27T07:21:27.411Z</time>
      </trkpt>
      <trkpt lat="50.3713" lon="3.88003">
        <ele>135.695967</ele>
        <time>2024-04-27T07:21:30.901Z</time>
      </trkpt>
      <trkpt lat="50.37129" lon="3.88017">
        <ele>135.625602</ele>
        <time>2024-04-27T07:21:32.546Z</time>
      </trkpt>
      <trkpt lat="50.37126" lon="3.88059">
        <ele>135.399044</ele>
        <time>2024-04-27T07:21:37.794Z</time>
      </trkpt>
      <trkpt lat="50.37123" lon="3.88088">
        <ele>135.242638</ele>
        <time>2024-04-27T07:21:41.523Z</time>
      </trkpt>
      <trkpt lat="50.37114" lon="3.88103">
        <ele>135.13399</ele>
        <time>2024-04-27T07:21:44.067Z</time>
      </trkpt>
      <trkpt lat="50.37047" lon="3.88142">
        <ele>134.543673</ele>
        <time>2024-04-27T07:21:58.424Z</time>
      </trkpt>
      <trkpt lat="50.36989" lon="3.88174">
        <ele>133.987063</ele>
        <time>2024-04-27T07:22:10.908Z</time>
      </trkpt>
      <trkpt lat="50.3698" lon="3.88179">
        <ele>133.896573</ele>
        <time>2024-04-27T07:22:12.827Z</time>
      </trkpt>
      <trkpt lat="50.36911" lon="3.88218">
        <ele>133.231558</ele>
        <time>2024-04-27T07:22:27.204Z</time>
      </trkpt>
      <trkpt lat="50.36854" lon="3.88249">
        <ele>132.657076</ele>
        <time>2024-04-27T07:22:38.478Z</time>
      </trkpt>
      <trkpt lat="50.36817" lon="3.8827">
        <ele>132.26348</ele>
        <time>2024-04-27T07:22:45.509Z</time>
      </trkpt>
      <trkpt lat="50.36794" lon="3.88281">
        <ele>132.013951</ele>
        <time>2024-04-27T07:22:50.175Z</time>
      </trkpt>
      <trkpt lat="50.36779" lon="3.88281">
        <ele>131.866773</ele>
        <time>2024-04-27T07:22:52.934Z</time>
      </trkpt>
      <trkpt lat="50.36765" lon="3.88277">
        <ele>131.720705</ele>
        <time>2024-04-27T07:22:55.959Z</time>
      </trkpt>
      <trkpt lat="50.3674" lon="3.88261">
        <ele>131.452223</ele>
        <time>2024-04-27T07:23:01.190Z</time>
      </trkpt>
      <trkpt lat="50.36721" lon="3.88239">
        <ele>131.211732</ele>
        <time>2024-04-27T07:23:06.087Z</time>
      </trkpt>
      <trkpt lat="50.36713" lon="3.88226">
        <ele>131.094446</ele>
        <time>2024-04-27T07:23:08.346Z</time>
      </trkpt>
      <trkpt lat="50.36743" lon="3.88304">
        <ele>131.037627</ele>
        <time>2024-04-27T07:23:21.129Z</time>
      </trkpt>
      <trkpt lat="50.36744" lon="3.88306">
        <ele>131.036809</ele>
        <time>2024-04-27T07:23:21.464Z</time>
      </trkpt>
      <trkpt lat="50.36765" lon="3.8834">
        <ele>131.020872</ele>
        <time>2024-04-27T07:23:28.494Z</time>
      </trkpt>
      <trkpt lat="50.3679" lon="3.88371">
        <ele>131.004256</ele>
        <time>2024-04-27T07:23:35.902Z</time>
      </trkpt>
      <trkpt lat="50.36796" lon="3.88379">
        <ele>131.000195</ele>
        <time>2024-04-27T07:23:37.749Z</time>
      </trkpt>
      <trkpt lat="50.36822" lon="3.8841">
        <ele>130.983311</ele>
        <time>2024-04-27T07:23:50.388Z</time>
      </trkpt>
      <trkpt lat="50.36897" lon="3.88512">
        <ele>130.729313</ele>
        <time>2024-04-27T07:24:27.744Z</time>
      </trkpt>
      <trkpt lat="50.3718" lon="3.88887">
        <ele>128.865424</ele>
        <time>2024-04-27T07:26:36.391Z</time>
      </trkpt>
      <trkpt lat="50.37203" lon="3.88921">
        <ele>128.745458</ele>
        <time>2024-04-27T07:26:47.709Z</time>
      </trkpt>
      <trkpt lat="50.37296" lon="3.8904">
        <ele>128.78668</ele>
        <time>2024-04-27T07:27:32.348Z</time>
      </trkpt>
      <trkpt lat="50.37466" lon="3.89269">
        <ele>130.113386</ele>
        <time>2024-04-27T07:29:01.264Z</time>
      </trkpt>
      <trkpt lat="50.37522" lon="3.8934">
        <ele>130.670583</ele>
        <time>2024-04-27T07:29:30.683Z</time>
      </trkpt>
      <trkpt lat="50.37514" lon="3.89281">
        <ele>130.97461</ele>
        <time>2024-04-27T07:29:46.561Z</time>
      </trkpt>
      <trkpt lat="50.37503" lon="3.89164">
        <ele>131.564671</ele>
        <time>2024-04-27T07:30:17.256Z</time>
      </trkpt>
      <trkpt lat="50.37455" lon="3.88826">
        <ele>132.97055</ele>
        <time>2024-04-27T07:31:44.332Z</time>
      </trkpt>
      <trkpt lat="50.37446" lon="3.88784">
        <ele>133.130343</ele>
        <time>2024-04-27T07:31:55.149Z</time>
      </trkpt>
      <trkpt lat="50.37417" lon="3.88697">
        <ele>133.509573</ele>
        <time>2024-04-27T07:32:19.605Z</time>
      </trkpt>
      <trkpt lat="50.37399" lon="3.88619">
        <ele>133.828235</ele>
        <time>2024-04-27T07:32:40.190Z</time>
      </trkpt>
      <trkpt lat="50.37379" lon="3.88506">
        <ele>134.341318</ele>
        <time>2024-04-27T07:33:09.760Z</time>
      </trkpt>
      <trkpt lat="50.37378" lon="3.88458">
        <ele>134.693784</ele>
        <time>2024-04-27T07:33:22.406Z</time>
      </trkpt>
      <trkpt lat="50.37375" lon="3.8843">
        <ele>134.908444</ele>
        <time>2024-04-27T07:33:30.280Z</time>
      </trkpt>
      <trkpt lat="50.37356" lon="3.88372">
        <ele>135.380596</ele>
        <time>2024-04-27T07:33:47.833Z</time>
      </trkpt>
      <trkpt lat="50.37356" lon="3.88351">
        <ele>135.536018</ele>
        <time>2024-04-27T07:33:53.605Z</time>
      </trkpt>
      <trkpt lat="50.37359" lon="3.88312">
        <ele>135.82589</ele>
        <time>2024-04-27T07:34:04.183Z</time>
      </trkpt>
      <trkpt lat="50.3738" lon="3.88173">
        <ele>136.807771</ele>
        <time>2024-04-27T07:34:42.123Z</time>
      </trkpt>
      <trkpt lat="50.37384" lon="3.88173">
        <ele>136.850682</ele>
        <time>2024-04-27T07:34:43.909Z</time>
      </trkpt>
      <trkpt lat="50.3738" lon="3.88173">
        <ele>136.893593</ele>
        <time>2024-04-27T07:34:45.503Z</time>
      </trkpt>
      <trkpt lat="50.37261" lon="3.88044">
        <ele>138.338658</ele>
        <time>2024-04-27T07:35:44.987Z</time>
      </trkpt>
      <trkpt lat="50.37257" lon="3.88041">
        <ele>138.377179</ele>
        <time>2024-04-27T07:35:46.578Z</time>
      </trkpt>
      <trkpt lat="50.37303" lon="3.87955">
        <ele>139.036243</ele>
        <time>2024-04-27T07:36:15.082Z</time>
      </trkpt>
      <trkpt lat="50.37365" lon="3.87839">
        <ele>139.771403</ele>
        <time>2024-04-27T07:36:55.030Z</time>
      </trkpt>
      <trkpt lat="50.37382" lon="3.87808">
        <ele>139.760166</ele>
        <time>2024-04-27T07:37:05.597Z</time>
      </trkpt>
      <trkpt lat="50.37418" lon="3.87849">
        <ele>139.740808</ele>
        <time>2024-04-27T07:37:16.581Z</time>
      </trkpt>
      <trkpt lat="50.37427" lon="3.87857">
        <ele>139.736341</ele>
        <time>2024-04-27T07:37:18.947Z</time>
      </trkpt>
      <trkpt lat="50.37418" lon="3.87849">
        <ele>139.731874</ele>
        <time>2024-04-27T07:37:21.324Z</time>
      </trkpt>
      <trkpt lat="50.37423" lon="3.87844">
        <ele>139.729218</ele>
        <time>2024-04-27T07:37:22.688Z</time>
      </trkpt>
      <trkpt lat="50.37439" lon="3.87851">
        <ele>139.722189</ele>
        <time>2024-04-27T07:37:26.378Z</time>
      </trkpt>
      <trkpt lat="50.3751" lon="3.87916">
        <ele>138.896261</ele>
        <time>2024-04-27T07:37:42.652Z</time>
      </trkpt>
      <trkpt lat="50.37523" lon="3.87926">
        <ele>138.568453</ele>
        <time>2024-04-27T07:37:45.117Z</time>
      </trkpt>
      <trkpt lat="50.37573" lon="3.87967">
        <ele>137.234861</ele>
        <time>2024-04-27T07:37:55.205Z</time>
      </trkpt>
      <trkpt lat="50.37622" lon="3.87949">
        <ele>136.023061</ele>
        <time>2024-04-27T07:38:10.445Z</time>
      </trkpt>
      <trkpt lat="50.37663" lon="3.87942">
        <ele>135.04837</ele>
        <time>2024-04-27T07:38:22.564Z</time>
      </trkpt>
      <trkpt lat="50.37773" lon="3.87937">
        <ele>132.38675</ele>
        <time>2024-04-27T07:38:55.674Z</time>
      </trkpt>
      <trkpt lat="50.37798" lon="3.87926">
        <ele>131.771324</ele>
        <time>2024-04-27T07:39:03.688Z</time>
      </trkpt>
      <trkpt lat="50.37919" lon="3.87949">
        <ele>130.576915</ele>
        <time>2024-04-27T07:39:44.208Z</time>
      </trkpt>
      <trkpt lat="50.3799" lon="3.87955">
        <ele>130.17808</ele>
        <time>2024-04-27T07:40:10.543Z</time>
      </trkpt>
      <trkpt lat="50.38109" lon="3.87976">
        <ele>131.463541</ele>
        <time>2024-04-27T07:40:59.442Z</time>
      </trkpt>
      <trkpt lat="50.3812" lon="3.87975">
        <ele>131.600566</ele>
        <time>2024-04-27T07:41:04.118Z</time>
      </trkpt>
      <trkpt lat="50.38145" lon="3.87958">
        <ele>131.95086</ele>
        <time>2024-04-27T07:41:16.176Z</time>
      </trkpt>
      <trkpt lat="50.38242" lon="3.87836">
        <ele>134.005765</ele>
        <time>2024-04-27T07:42:13.422Z</time>
      </trkpt>
      <trkpt lat="50.3826" lon="3.87821">
        <ele>134.361137</ele>
        <time>2024-04-27T07:42:22.449Z</time>
      </trkpt>
      <trkpt lat="50.38278" lon="3.87813">
        <ele>134.711239</ele>
        <time>2024-04-27T07:42:31.109Z</time>
      </trkpt>
      <trkpt lat="50.38332" lon="3.87804">
        <ele>135.651951</ele>
        <time>2024-04-27T07:42:54.111Z</time>
      </trkpt>
      <trkpt lat="50.38366" lon="3.87802">
        <ele>135.608396</ele>
        <time>2024-04-27T07:43:07.833Z</time>
      </trkpt>
      <trkpt lat="50.38441" lon="3.87822">
        <ele>135.511664</ele>
        <time>2024-04-27T07:43:35.740Z</time>
      </trkpt>
      <trkpt lat="50.38477" lon="3.87823">
        <ele>135.466592</ele>
        <time>2024-04-27T07:43:48.018Z</time>
      </trkpt>
      <trkpt lat="50.38528" lon="3.87822">
        <ele>135.343383</ele>
        <time>2024-04-27T07:43:58.271Z</time>
      </trkpt>
      <trkpt lat="50.38547" lon="3.87828">
        <ele>135.258286</ele>
        <time>2024-04-27T07:44:02.185Z</time>
      </trkpt>
      <trkpt lat="50.38614" lon="3.87869">
        <ele>134.944119</ele>
        <time>2024-04-27T07:44:17.088Z</time>
      </trkpt>
      <trkpt lat="50.38672" lon="3.87894">
        <ele>134.680553</ele>
        <time>2024-04-27T07:44:30.895Z</time>
      </trkpt>
      <trkpt lat="50.38735" lon="3.87915">
        <ele>134.779806</ele>
        <time>2024-04-27T07:44:47.070Z</time>
      </trkpt>
      <trkpt lat="50.38791" lon="3.87928">
        <ele>134.92431</ele>
        <time>2024-04-27T07:45:01.433Z</time>
      </trkpt>
      <trkpt lat="50.38808" lon="3.87963">
        <ele>134.996931</ele>
        <time>2024-04-27T07:45:08.288Z</time>
      </trkpt>
      <trkpt lat="50.38857" lon="3.88057">
        <ele>134.761406</ele>
        <time>2024-04-27T07:45:26.183Z</time>
      </trkpt>
      <trkpt lat="50.38862" lon="3.88047">
        <ele>134.681003</ele>
        <time>2024-04-27T07:45:27.973Z</time>
      </trkpt>
      <trkpt lat="50.38871" lon="3.88036">
        <ele>134.580353</ele>
        <time>2024-04-27T07:45:30.119Z</time>
      </trkpt>
      <trkpt lat="50.38883" lon="3.88019">
        <ele>134.430237</ele>
        <time>2024-04-27T07:45:33.339Z</time>
      </trkpt>
      <trkpt lat="50.38917" lon="3.87973">
        <ele>134.018142</ele>
        <time>2024-04-27T07:45:41.761Z</time>
      </trkpt>
      <trkpt lat="50.38932" lon="3.87952">
        <ele>133.830227</ele>
        <time>2024-04-27T07:45:45.558Z</time>
      </trkpt>
      <trkpt lat="50.38936" lon="3.87957">
        <ele>133.786643</ele>
        <time>2024-04-27T07:45:46.464Z</time>
      </trkpt>
      <trkpt lat="50.38932" lon="3.87952">
        <ele>133.743058</ele>
        <time>2024-04-27T07:45:47.405Z</time>
      </trkpt>
      <trkpt lat="50.38953" lon="3.87921">
        <ele>133.477484</ele>
        <time>2024-04-27T07:45:52.711Z</time>
      </trkpt>
      <trkpt lat="50.38969" lon="3.87884">
        <ele>133.039083</ele>
        <time>2024-04-27T07:45:57.804Z</time>
      </trkpt>
      <trkpt lat="50.38987" lon="3.87809">
        <ele>132.18655</ele>
        <time>2024-04-27T07:46:06.955Z</time>
      </trkpt>
      <trkpt lat="50.39006" lon="3.87705">
        <ele>131.034998</ele>
        <time>2024-04-27T07:46:19.470Z</time>
      </trkpt>
      <trkpt lat="50.39024" lon="3.87612">
        <ele>130.014434</ele>
        <time>2024-04-27T07:46:30.689Z</time>
      </trkpt>
      <trkpt lat="50.39025" lon="3.87604">
        <ele>129.927649</ele>
        <time>2024-04-27T07:46:31.633Z</time>
      </trkpt>
      <trkpt lat="50.38999" lon="3.87582">
        <ele>129.453154</ele>
        <time>2024-04-27T07:46:51.805Z</time>
      </trkpt>
      <trkpt lat="50.38993" lon="3.8752">
        <ele>128.795332</ele>
        <time>2024-04-27T07:47:19.838Z</time>
      </trkpt>
      <trkpt lat="50.38987" lon="3.87489">
        <ele>128.458549</ele>
        <time>2024-04-27T07:47:34.172Z</time>
      </trkpt>
      <trkpt lat="50.38969" lon="3.87421">
        <ele>127.688414</ele>
        <time>2024-04-27T07:48:06.966Z</time>
      </trkpt>
      <trkpt lat="50.38962" lon="3.87395">
        <ele>127.397897</ele>
        <time>2024-04-27T07:48:19.127Z</time>
      </trkpt>
      <trkpt lat="50.38969" lon="3.87172">
        <ele>124.965271</ele>
        <time>2024-04-27T07:49:58.329Z</time>
      </trkpt>
      <trkpt lat="50.38967" lon="3.8704">
        <ele>124.110899</ele>
        <time>2024-04-27T07:50:56.730Z</time>
      </trkpt>
      <trkpt lat="50.38965" lon="3.86905">
        <ele>123.563914</ele>
        <time>2024-04-27T07:51:15.084Z</time>
      </trkpt>
      <trkpt lat="50.38971" lon="3.86852">
        <ele>123.350313</ele>
        <time>2024-04-27T07:51:23.427Z</time>
      </trkpt>
      <trkpt lat="50.38971" lon="3.86849">
        <ele>123.338047</ele>
        <time>2024-04-27T07:51:23.896Z</time>
      </trkpt>
      <trkpt lat="50.38975" lon="3.86833">
        <ele>123.44052</ele>
        <time>2024-04-27T07:51:26.751Z</time>
      </trkpt>
      <trkpt lat="50.38899" lon="3.86793">
        <ele>124.834409</ele>
        <time>2024-04-27T07:51:49.690Z</time>
      </trkpt>
      <trkpt lat="50.38892" lon="3.86784">
        <ele>125.000047</ele>
        <time>2024-04-27T07:51:52.678Z</time>
      </trkpt>
      <trkpt lat="50.38885" lon="3.86772">
        <ele>125.172173</ele>
        <time>2024-04-27T07:51:55.725Z</time>
      </trkpt>
      <trkpt lat="50.38876" lon="3.86745">
        <ele>125.52022</ele>
        <time>2024-04-27T07:52:02.294Z</time>
      </trkpt>
      <trkpt lat="50.38867" lon="3.86701">
        <ele>126.031696</ele>
        <time>2024-04-27T07:52:12.170Z</time>
      </trkpt>
      <trkpt lat="50.38871" lon="3.86631">
        <ele>126.885227</ele>
        <time>2024-04-27T07:52:27.551Z</time>
      </trkpt>
      <trkpt lat="50.38863" lon="3.86631">
        <ele>127.066311</ele>
        <time>2024-04-27T07:52:30.397Z</time>
      </trkpt>
      <trkpt lat="50.3884" lon="3.86666">
        <ele>127.75048</ele>
        <time>2024-04-27T07:52:40.830Z</time>
      </trkpt>
      <trkpt lat="50.38827" lon="3.86669">
        <ele>128.022376</ele>
        <time>2024-04-27T07:52:44.840Z</time>
      </trkpt>
      <trkpt lat="50.38794" lon="3.86688">
        <ele>128.77427</ele>
        <time>2024-04-27T07:52:55.736Z</time>
      </trkpt>
      <trkpt lat="50.38728" lon="3.86642">
        <ele>130.306411</ele>
        <time>2024-04-27T07:53:17.906Z</time>
      </trkpt>
      <trkpt lat="50.38671" lon="3.86577">
        <ele>131.609333</ele>
        <time>2024-04-27T07:53:39.413Z</time>
      </trkpt>
      <trkpt lat="50.3864" lon="3.86544">
        <ele>132.290641</ele>
        <time>2024-04-27T07:53:55.801Z</time>
      </trkpt>
      <trkpt lat="50.38534" lon="3.86455">
        <ele>134.458301</ele>
        <time>2024-04-27T07:54:49.362Z</time>
      </trkpt>
      <trkpt lat="50.38426" lon="3.86363">
        <ele>136.607178</ele>
        <time>2024-04-27T07:55:43.762Z</time>
      </trkpt>
      <trkpt lat="50.38408" lon="3.86344">
        <ele>136.867362</ele>
        <time>2024-04-27T07:55:53.567Z</time>
      </trkpt>
      <trkpt lat="50.38394" lon="3.86324">
        <ele>137.028733</ele>
        <time>2024-04-27T07:56:01.362Z</time>
      </trkpt>
      <trkpt lat="50.38293" lon="3.86129">
        <ele>138.245323</ele>
        <time>2024-04-27T07:57:05.940Z</time>
      </trkpt>
      <trkpt lat="50.38293" lon="3.86129">
        <ele>138.243396</ele>
        <time>2024-04-27T07:57:06.034Z</time>
      </trkpt>
      <trkpt lat="50.3829" lon="3.86114">
        <ele>138.17286</ele>
        <time>2024-04-27T07:57:09.697Z</time>
      </trkpt>
      <trkpt lat="50.3828" lon="3.86099">
        <ele>138.075932</ele>
        <time>2024-04-27T07:57:14.631Z</time>
      </trkpt>
      <trkpt lat="50.38162" lon="3.85874">
        <ele>136.692234</ele>
        <time>2024-04-27T07:58:17.009Z</time>
      </trkpt>
      <trkpt lat="50.38079" lon="3.85715">
        <ele>135.54269</ele>
        <time>2024-04-27T07:59:01.338Z</time>
      </trkpt>
      <trkpt lat="50.3806" lon="3.85686">
        <ele>135.537563</ele>
        <time>2024-04-27T07:59:11.046Z</time>
      </trkpt>
      <trkpt lat="50.38046" lon="3.85657">
        <ele>135.577986</ele>
        <time>2024-04-27T07:59:19.673Z</time>
      </trkpt>
      <trkpt lat="50.3803" lon="3.85612">
        <ele>135.634459</ele>
        <time>2024-04-27T07:59:31.882Z</time>
      </trkpt>
      <trkpt lat="50.38015" lon="3.85595">
        <ele>135.666365</ele>
        <time>2024-04-27T07:59:38.809Z</time>
      </trkpt>
      <trkpt lat="50.38003" lon="3.85541">
        <ele>135.729209</ele>
        <time>2024-04-27T07:59:52.887Z</time>
      </trkpt>
      <trkpt lat="50.37998" lon="3.85524">
        <ele>135.750067</ele>
        <time>2024-04-27T07:59:57.721Z</time>
      </trkpt>
      <trkpt lat="50.37948" lon="3.85402">
        <ele>135.937332</ele>
        <time>2024-04-27T08:00:34.540Z</time>
      </trkpt>
      <trkpt lat="50.37876" lon="3.85224">
        <ele>136.197319</ele>
        <time>2024-04-27T08:01:24.701Z</time>
      </trkpt>
      <trkpt lat="50.37819" lon="3.85102">
        <ele>136.107131</ele>
        <time>2024-04-27T08:01:59.087Z</time>
      </trkpt>
      <trkpt lat="50.37793" lon="3.85048">
        <ele>136.067095</ele>
        <time>2024-04-27T08:02:14.874Z</time>
      </trkpt>
      <trkpt lat="50.37729" lon="3.84899">
        <ele>136.811654</ele>
        <time>2024-04-27T08:02:59.325Z</time>
      </trkpt>
      <trkpt lat="50.3772" lon="3.84903">
        <ele>136.891184</ele>
        <time>2024-04-27T08:03:01.947Z</time>
      </trkpt>
      <trkpt lat="50.37713" lon="3.84896">
        <ele>136.968782</ele>
        <time>2024-04-27T08:03:04.466Z</time>
      </trkpt>
      <trkpt lat="50.37689" lon="3.84915">
        <ele>137.208685</ele>
        <time>2024-04-27T08:03:11.946Z</time>
      </trkpt>
      <trkpt lat="50.37689" lon="3.8493">
        <ele>137.294625</ele>
        <time>2024-04-27T08:03:14.764Z</time>
      </trkpt>
      <trkpt lat="50.37689" lon="3.84915">
        <ele>137.380565</ele>
        <time>2024-04-27T08:03:17.264Z</time>
      </trkpt>
      <trkpt lat="50.37422" lon="3.85112">
        <ele>140.900823</ele>
        <time>2024-04-27T08:05:23.940Z</time>
      </trkpt>
      <trkpt lat="50.37204" lon="3.85276">
        <ele>141.27059</ele>
        <time>2024-04-27T08:06:54.655Z</time>
      </trkpt>
      <trkpt lat="50.37212" lon="3.85296">
        <ele>141.23603</ele>
        <time>2024-04-27T08:06:59.570Z</time>
      </trkpt>
      <trkpt lat="50.37204" lon="3.85276">
        <ele>141.201471</ele>
        <time>2024-04-27T08:07:04.600Z</time>
      </trkpt>
      <trkpt lat="50.3699" lon="3.84793">
        <ele>135.717867</ele>
        <time>2024-04-27T08:09:05.014Z</time>
      </trkpt>
      <trkpt lat="50.36975" lon="3.84777">
        <ele>135.807781</ele>
        <time>2024-04-27T08:09:11.614Z</time>
      </trkpt>
      <trkpt lat="50.36574" lon="3.84642">
        <ele>139.507741</ele>
        <time>2024-04-27T08:12:00.215Z</time>
      </trkpt>
      <trkpt lat="50.36571" lon="3.84649">
        <ele>139.586241</ele>
        <time>2024-04-27T08:12:01.771Z</time>
      </trkpt>
      <trkpt lat="50.36379" lon="3.84456">
        <ele>142.979628</ele>
        <time>2024-04-27T08:13:10.289Z</time>
      </trkpt>
      <trkpt lat="50.36286" lon="3.84451">
        <ele>144.032971</ele>
        <time>2024-04-27T08:13:36.201Z</time>
      </trkpt>
      <trkpt lat="50.36184" lon="3.84474">
        <ele>144.790708</ele>
        <time>2024-04-27T08:14:02.865Z</time>
      </trkpt>
      <trkpt lat="50.36078" lon="3.84488">
        <ele>144.750101</ele>
        <time>2024-04-27T08:14:28.353Z</time>
      </trkpt>
      <trkpt lat="50.36073" lon="3.84483">
        <ele>144.729286</ele>
        <time>2024-04-27T08:14:29.744Z</time>
      </trkpt>
      <trkpt lat="50.36015" lon="3.84395">
        <ele>144.469017</ele>
        <time>2024-04-27T08:14:46.308Z</time>
      </trkpt>
      <trkpt lat="50.36009" lon="3.84387">
        <ele>144.443841</ele>
        <time>2024-04-27T08:14:47.956Z</time>
      </trkpt>
      <trkpt lat="50.35964" lon="3.84456">
        <ele>144.188939</ele>
        <time>2024-04-27T08:15:09.805Z</time>
      </trkpt>
      <trkpt lat="50.35959" lon="3.84469">
        <ele>144.1483</ele>
        <time>2024-04-27T08:15:13.343Z</time>
      </trkpt>
      <trkpt lat="50.35951" lon="3.8451">
        <ele>144.034207</ele>
        <time>2024-04-27T08:15:23.106Z</time>
      </trkpt>
      <trkpt lat="50.35937" lon="3.84532">
        <ele>143.951973</ele>
        <time>2024-04-27T08:15:30.191Z</time>
      </trkpt>
      <trkpt lat="50.35928" lon="3.8454">
        <ele>143.911019</ele>
        <time>2024-04-27T08:15:33.709Z</time>
      </trkpt>
      <trkpt lat="50.35912" lon="3.84541">
        <ele>143.846253</ele>
        <time>2024-04-27T08:15:39.397Z</time>
      </trkpt>
      <trkpt lat="50.35903" lon="3.84538">
        <ele>143.804832</ele>
        <time>2024-04-27T08:15:42.903Z</time>
      </trkpt>
      <trkpt lat="50.35847" lon="3.8448">
        <ele>143.701882</ele>
        <time>2024-04-27T08:16:07.298Z</time>
      </trkpt>
      <trkpt lat="50.35846" lon="3.84479">
        <ele>143.702233</ele>
        <time>2024-04-27T08:16:07.445Z</time>
      </trkpt>
      <trkpt lat="50.35829" lon="3.84451">
        <ele>143.72254</ele>
        <time>2024-04-27T08:16:17.327Z</time>
      </trkpt>
      <trkpt lat="50.35774" lon="3.8438">
        <ele>143.779621</ele>
        <time>2024-04-27T08:16:44.847Z</time>
      </trkpt>
      <trkpt lat="50.35758" lon="3.84356">
        <ele>143.797431</ele>
        <time>2024-04-27T08:16:52.767Z</time>
      </trkpt>
      <trkpt lat="50.35724" lon="3.84446">
        <ele>143.699774</ele>
        <time>2024-04-27T08:17:16.998Z</time>
      </trkpt>
      <trkpt lat="50.35702" lon="3.84525">
        <ele>143.543812</ele>
        <time>2024-04-27T08:17:37.214Z</time>
      </trkpt>
      <trkpt lat="50.35702" lon="3.84534">
        <ele>143.527909</ele>
        <time>2024-04-27T08:17:39.187Z</time>
      </trkpt>
      <trkpt lat="50.35698" lon="3.84539">
        <ele>143.513417</ele>
        <time>2024-04-27T08:17:40.914Z</time>
      </trkpt>
      <trkpt lat="50.35695" lon="3.84543">
        <ele>143.50294</ele>
        <time>2024-04-27T08:17:42.164Z</time>
      </trkpt>
      <trkpt lat="50.35652" lon="3.84525">
        <ele>143.374975</ele>
        <time>2024-04-27T08:17:58.506Z</time>
      </trkpt>
      <trkpt lat="50.35607" lon="3.84513">
        <ele>143.219138</ele>
        <time>2024-04-27T08:18:14.717Z</time>
      </trkpt>
      <trkpt lat="50.35595" lon="3.84507">
        <ele>143.169649</ele>
        <time>2024-04-27T08:18:18.944Z</time>
      </trkpt>
      <trkpt lat="50.3558" lon="3.84488">
        <ele>143.090639</ele>
        <time>2024-04-27T08:18:25.785Z</time>
      </trkpt>
      <trkpt lat="50.35573" lon="3.84489">
        <ele>143.062801</ele>
        <time>2024-04-27T08:18:27.302Z</time>
      </trkpt>
      <trkpt lat="50.35553" lon="3.8448">
        <ele>142.976707</ele>
        <time>2024-04-27T08:18:31.804Z</time>
      </trkpt>
      <trkpt lat="50.35504" lon="3.8444">
        <ele>142.753408</ele>
        <time>2024-04-27T08:18:44.112Z</time>
      </trkpt>
      <trkpt lat="50.35469" lon="3.84416">
        <ele>142.596174</ele>
        <time>2024-04-27T08:18:52.476Z</time>
      </trkpt>
      <trkpt lat="50.35456" lon="3.84495">
        <ele>142.38285</ele>
        <time>2024-04-27T08:19:10.293Z</time>
      </trkpt>
      <trkpt lat="50.35376" lon="3.84925">
        <ele>141.444626</ele>
        <time>2024-04-27T08:20:52.641Z</time>
      </trkpt>
      <trkpt lat="50.35374" lon="3.84936">
        <ele>141.42663</ele>
        <time>2024-04-27T08:20:55.232Z</time>
      </trkpt>
      <trkpt lat="50.35347" lon="3.8508">
        <ele>141.608487</ele>
        <time>2024-04-27T08:21:31.357Z</time>
      </trkpt>
      <trkpt lat="50.35319" lon="3.85157">
        <ele>141.781166</ele>
        <time>2024-04-27T08:21:53.076Z</time>
      </trkpt>
      <trkpt lat="50.35218" lon="3.85362">
        <ele>142.433557</ele>
        <time>2024-04-27T08:22:57.871Z</time>
      </trkpt>
      <trkpt lat="50.35169" lon="3.85433">
        <ele>142.702096</ele>
        <time>2024-04-27T08:23:23.712Z</time>
      </trkpt>
      <trkpt lat="50.34914" lon="3.85888">
        <ele>142.949365</ele>
        <time>2024-04-27T08:25:47.648Z</time>
      </trkpt>
      <trkpt lat="50.34918" lon="3.85893">
        <ele>142.945913</ele>
        <time>2024-04-27T08:25:48.771Z</time>
      </trkpt>
      <trkpt lat="50.35352" lon="3.86469">
        <ele>142.393717</ele>
        <time>2024-04-27T08:27:58.737Z</time>
      </trkpt>
      <trkpt lat="50.35353" lon="3.86469">
        <ele>142.389847</ele>
        <time>2024-04-27T08:27:59.065Z</time>
      </trkpt>
      <trkpt lat="50.35366" lon="3.86474">
        <ele>142.357061</ele>
        <time>2024-04-27T08:28:01.915Z</time>
      </trkpt>
      <trkpt lat="50.35453" lon="3.8647">
        <ele>142.137194</ele>
        <time>2024-04-27T08:28:21.201Z</time>
      </trkpt>
      <trkpt lat="50.356" lon="3.86393">
        <ele>141.357547</ele>
        <time>2024-04-27T08:28:54.367Z</time>
      </trkpt>
      <trkpt lat="50.35607" lon="3.8639">
        <ele>141.320762</ele>
        <time>2024-04-27T08:28:55.905Z</time>
      </trkpt>
      <trkpt lat="50.35621" lon="3.86395">
        <ele>141.249035</ele>
        <time>2024-04-27T08:28:58.801Z</time>
      </trkpt>
      <trkpt lat="50.35691" lon="3.86513">
        <ele>140.256436</ele>
        <time>2024-04-27T08:29:20.450Z</time>
      </trkpt>
      <trkpt lat="50.35702" lon="3.86523">
        <ele>140.123708</ele>
        <time>2024-04-27T08:29:22.963Z</time>
      </trkpt>
      <trkpt lat="50.35714" lon="3.86535">
        <ele>139.974409</ele>
        <time>2024-04-27T08:29:25.793Z</time>
      </trkpt>
      <trkpt lat="50.35717" lon="3.86547">
        <ele>139.887439</ele>
        <time>2024-04-27T08:29:28.491Z</time>
      </trkpt>
      <trkpt lat="50.35717" lon="3.86551">
        <ele>139.86538</ele>
        <time>2024-04-27T08:29:29.165Z</time>
      </trkpt>
      <trkpt lat="50.35743" lon="3.86599">
        <ele>139.440448</ele>
        <time>2024-04-27T08:29:42.298Z</time>
      </trkpt>
      <trkpt lat="50.35781" lon="3.86681">
        <ele>138.469482</ele>
        <time>2024-04-27T08:30:03.076Z</time>
      </trkpt>
      <trkpt lat="50.35813" lon="3.8676">
        <ele>137.473372</ele>
        <time>2024-04-27T08:30:22.160Z</time>
      </trkpt>
      <trkpt lat="50.35826" lon="3.86786">
        <ele>137.118584</ele>
        <time>2024-04-27T08:30:28.904Z</time>
      </trkpt>
      <trkpt lat="50.35873" lon="3.86861">
        <ele>136.272739</ele>
        <time>2024-04-27T08:30:50.493Z</time>
      </trkpt>
      <trkpt lat="50.35906" lon="3.86915">
        <ele>136.275397</ele>
        <time>2024-04-27T08:31:06.035Z</time>
      </trkpt>
      <trkpt lat="50.36013" lon="3.87072">
        <ele>136.611602</ele>
        <time>2024-04-27T08:32:04.854Z</time>
      </trkpt>
      <trkpt lat="50.36017" lon="3.87077">
        <ele>136.670877</ele>
        <time>2024-04-27T08:32:07.368Z</time>
      </trkpt>
      <trkpt lat="50.36027" lon="3.87077">
        <ele>136.772153</ele>
        <time>2024-04-27T08:32:11.449Z</time>
      </trkpt>
      <trkpt lat="50.3603" lon="3.87062">
        <ele>136.880783</ele>
        <time>2024-04-27T08:32:14.607Z</time>
      </trkpt>
      <trkpt lat="50.36087" lon="3.86952">
        <ele>137.864628</ele>
        <time>2024-04-27T08:32:41.109Z</time>
      </trkpt>
      <trkpt lat="50.3611" lon="3.86911">
        <ele>138.239951</ele>
        <time>2024-04-27T08:32:50.562Z</time>
      </trkpt>
      <trkpt lat="50.36223" lon="3.86672">
        <ele>137.798163</ele>
        <time>2024-04-27T08:33:31.350Z</time>
      </trkpt>
      <trkpt lat="50.36229" lon="3.86681">
        <ele>137.816726</ele>
        <time>2024-04-27T08:33:33.119Z</time>
      </trkpt>
      <trkpt lat="50.36223" lon="3.86672">
        <ele>137.83529</ele>
        <time>2024-04-27T08:33:34.899Z</time>
      </trkpt>
      <trkpt lat="50.36252" lon="3.86611">
        <ele>137.943455</ele>
        <time>2024-04-27T08:33:52.560Z</time>
      </trkpt>
      <trkpt lat="50.3626" lon="3.86592">
        <ele>137.976088</ele>
        <time>2024-04-27T08:33:56.972Z</time>
      </trkpt>
      <trkpt lat="50.36275" lon="3.86567">
        <ele>138.025092</ele>
        <time>2024-04-27T08:34:05.388Z</time>
      </trkpt>
      <trkpt lat="50.3628" lon="3.86558">
        <ele>138.044007</ele>
        <time>2024-04-27T08:34:08.738Z</time>
      </trkpt>
      <trkpt lat="50.36323" lon="3.8651">
        <ele>138.162321</ele>
        <time>2024-04-27T08:34:29.880Z</time>
      </trkpt>
      <trkpt lat="50.36338" lon="3.86489">
        <ele>138.143104</ele>
        <time>2024-04-27T08:34:38.240Z</time>
      </trkpt>
      <trkpt lat="50.36349" lon="3.86498">
        <ele>138.107338</ele>
        <time>2024-04-27T08:34:43.017Z</time>
      </trkpt>
      <trkpt lat="50.36394" lon="3.86536">
        <ele>137.960417</ele>
        <time>2024-04-27T08:35:02.553Z</time>
      </trkpt>
      <trkpt lat="50.36406" lon="3.86534">
        <ele>137.925277</ele>
        <time>2024-04-27T08:35:05.443Z</time>
      </trkpt>
      <trkpt lat="50.3646" lon="3.86548">
        <ele>137.766706</ele>
        <time>2024-04-27T08:35:16.998Z</time>
      </trkpt>
      <trkpt lat="50.36472" lon="3.86563">
        <ele>137.722707</ele>
        <time>2024-04-27T08:35:20.124Z</time>
      </trkpt>
      <trkpt lat="50.3657" lon="3.86683">
        <ele>136.331103</ele>
        <time>2024-04-27T08:35:59.902Z</time>
      </trkpt>
      <trkpt lat="50.36622" lon="3.86714">
        <ele>135.611904</ele>
        <time>2024-04-27T08:36:18.101Z</time>
      </trkpt>
      <trkpt lat="50.36656" lon="3.86769">
        <ele>135.446244</ele>
        <time>2024-04-27T08:36:35.364Z</time>
      </trkpt>
      <trkpt lat="50.3671" lon="3.86953">
        <ele>136.021423</ele>
        <time>2024-04-27T08:37:26.959Z</time>
      </trkpt>
      <trkpt lat="50.36735" lon="3.87041">
        <ele>136.342145</ele>
        <time>2024-04-27T08:37:52.182Z</time>
      </trkpt>
      <trkpt lat="50.36748" lon="3.87089">
        <ele>136.530987</ele>
        <time>2024-04-27T08:38:05.605Z</time>
      </trkpt>
      <trkpt lat="50.36776" lon="3.87175">
        <ele>136.880953</ele>
        <time>2024-04-27T08:38:30.080Z</time>
      </trkpt>
      <trkpt lat="50.36781" lon="3.87178">
        <ele>136.906796</ele>
        <time>2024-04-27T08:38:31.902Z</time>
      </trkpt>
      <trkpt lat="50.36792" lon="3.87218">
        <ele>137.066348</ele>
        <time>2024-04-27T08:38:42.855Z</time>
      </trkpt>
      <trkpt lat="50.36793" lon="3.87224">
        <ele>137.088408</ele>
        <time>2024-04-27T08:38:45.554Z</time>
      </trkpt>
      <trkpt lat="50.36794" lon="3.87226">
        <ele>137.096504</ele>
        <time>2024-04-27T08:38:46.557Z</time>
      </trkpt>
      <trkpt lat="50.36897" lon="3.87409">
        <ele>136.747568</ele>
        <time>2024-04-27T08:40:34.804Z</time>
      </trkpt>
      <trkpt lat="50.369" lon="3.87415">
        <ele>136.735282</ele>
        <time>2024-04-27T08:40:36.390Z</time>
      </trkpt>
      <trkpt lat="50.36989" lon="3.87563">
        <ele>135.940026</ele>
        <time>2024-04-27T08:41:20.687Z</time>
      </trkpt>
      <trkpt lat="50.37058" lon="3.87707">
        <ele>135.387033</ele>
        <time>2024-04-27T08:42:00.622Z</time>
      </trkpt>
      <trkpt lat="50.37091" lon="3.87774">
        <ele>135.387033</ele>
        <time>2024-04-27T08:42:13.602Z</time>
      </trkpt>
      <trkpt lat="50.3711" lon="3.87807">
        <ele>135.387033</ele>
        <time>2024-04-27T08:42:20.529Z</time>
      </trkpt>
      <trkpt lat="50.37161" lon="3.87841">
        <ele>135.387033</ele>
        <time>2024-04-27T08:42:34.699Z</time>
      </trkpt>
    </trkseg>
  </trk>
</gpx>